sensor_id;sensor_type;location;lat;lon;timestamp;temperature;humidity
61412;DHT22;47278;49.732;7.690;2024-01-07T00:00:19;4.60;99.90
61412;DHT22;47278;49.732;7.690;2024-01-07T00:02:45;4.50;99.90
61412;DHT22;47278;49.732;7.690;2024-01-07T00:05:11;4.50;99.90
61412;DHT22;47278;49.732;7.690;2024-01-07T00:07:37;4.70;99.90
61412;DHT22;47278;49.732;7.690;2024-01-07T00:10:03;4.90;99.90
61412;DHT22;47278;49.732;7.690;2024-01-07T00:12:29;4.50;99.90
61412;DHT22;47278;49.732;7.690;2024-01-07T00:14:54;4.60;99.90
61412;DHT22;47278;49.732;7.690;2024-01-07T00:17:20;4.50;99.90
61412;DHT22;47278;49.732;7.690;2024-01-07T00:19:46;4.50;99.90
61412;DHT22;47278;49.732;7.690;2024-01-07T00:22:13;4.50;99.90
61412;DHT22;47278;49.732;7.690;2024-01-07T00:24:39;4.50;99.90
61412;DHT22;47278;49.732;7.690;2024-01-07T00:27:05;4.50;99.90
61412;DHT22;47278;49.732;7.690;2024-01-07T00:29:31;4.50;99.90
61412;DHT22;47278;49.732;7.690;2024-01-07T00:31:57;4.40;99.90
61412;DHT22;47278;49.732;7.690;2024-01-07T00:34:23;4.40;99.90
61412;DHT22;47278;49.732;7.690;2024-01-07T00:36:48;4.60;99.90
61412;DHT22;47278;49.732;7.690;2024-01-07T00:39:14;4.40;99.90
61412;DHT22;47278;49.732;7.690;2024-01-07T00:41:41;4.90;99.90
61412;DHT22;47278;49.732;7.690;2024-01-07T00:44:07;4.40;99.90
61412;DHT22;47278;49.732;7.690;2024-01-07T00:46:33;5.10;99.90
61412;DHT22;47278;49.732;7.690;2024-01-07T00:48:58;4.40;99.90
61412;DHT22;47278;49.732;7.690;2024-01-07T00:51:24;4.40;99.90
61412;DHT22;47278;49.732;7.690;2024-01-07T00:53:51;4.50;99.90
61412;DHT22;47278;49.732;7.690;2024-01-07T00:56:16;4.30;99.90
61412;DHT22;47278;49.732;7.690;2024-01-07T00:58:42;4.40;99.90
61412;DHT22;47278;49.732;7.690;2024-01-07T01:01:08;4.30;99.90
61412;DHT22;47278;49.732;7.690;2024-01-07T01:03:34;4.30;99.90
61412;DHT22;47278;49.732;7.690;2024-01-07T01:05:59;4.30;99.90
61412;DHT22;47278;49.732;7.690;2024-01-07T01:08:25;4.30;99.90
61412;DHT22;47278;49.732;7.690;2024-01-07T01:10:50;4.30;99.90
61412;DHT22;47278;49.732;7.690;2024-01-07T01:13:16;4.30;99.90
61412;DHT22;47278;49.732;7.690;2024-01-07T01:15:43;4.30;99.90
61412;DHT22;47278;49.732;7.690;2024-01-07T01:18:08;4.30;99.90
61412;DHT22;47278;49.732;7.690;2024-01-07T01:20:35;4.50;99.90
61412;DHT22;47278;49.732;7.690;2024-01-07T01:23:01;4.30;99.90
61412;DHT22;47278;49.732;7.690;2024-01-07T01:25:27;4.30;99.90
61412;DHT22;47278;49.732;7.690;2024-01-07T01:27:53;4.70;99.90
61412;DHT22;47278;49.732;7.690;2024-01-07T01:30:19;4.30;99.90
61412;DHT22;47278;49.732;7.690;2024-01-07T01:32:44;4.30;99.90
61412;DHT22;47278;49.732;7.690;2024-01-07T01:35:10;4.30;99.90
61412;DHT22;47278;49.732;7.690;2024-01-07T01:37:37;4.30;99.90
61412;DHT22;47278;49.732;7.690;2024-01-07T01:40:03;4.50;99.90
61412;DHT22;47278;49.732;7.690;2024-01-07T01:42:29;4.30;99.90
61412;DHT22;47278;49.732;7.690;2024-01-07T01:44:54;4.30;99.90
61412;DHT22;47278;49.732;7.690;2024-01-07T01:47:24;5.60;99.90
61412;DHT22;47278;49.732;7.690;2024-01-07T01:49:50;4.30;99.90
61412;DHT22;47278;49.732;7.690;2024-01-07T01:52:16;4.30;99.90
61412;DHT22;47278;49.732;7.690;2024-01-07T01:54:43;4.30;99.90
61412;DHT22;47278;49.732;7.690;2024-01-07T01:57:09;4.30;99.90
61412;DHT22;47278;49.732;7.690;2024-01-07T01:59:39;4.30;99.90
61412;DHT22;47278;49.732;7.690;2024-01-07T02:02:05;4.40;99.90
61412;DHT22;47278;49.732;7.690;2024-01-07T02:04:30;4.30;99.90
61412;DHT22;47278;49.732;7.690;2024-01-07T02:06:56;4.20;99.90
61412;DHT22;47278;49.732;7.690;2024-01-07T02:09:23;5.00;99.90
61412;DHT22;47278;49.732;7.690;2024-01-07T02:12:01;4.20;99.90
61412;DHT22;47278;49.732;7.690;2024-01-07T02:14:27;4.30;99.90
61412;DHT22;47278;49.732;7.690;2024-01-07T02:16:52;4.30;99.90
61412;DHT22;47278;49.732;7.690;2024-01-07T02:19:19;4.40;99.90
61412;DHT22;47278;49.732;7.690;2024-01-07T02:21:47;4.20;99.90
61412;DHT22;47278;49.732;7.690;2024-01-07T02:24:16;4.20;99.90
61412;DHT22;47278;49.732;7.690;2024-01-07T02:26:43;4.20;99.90
61412;DHT22;47278;49.732;7.690;2024-01-07T02:29:08;4.20;99.90
61412;DHT22;47278;49.732;7.690;2024-01-07T02:31:34;4.20;99.90
61412;DHT22;47278;49.732;7.690;2024-01-07T02:34:00;4.30;99.90
61412;DHT22;47278;49.732;7.690;2024-01-07T02:36:26;4.30;99.90
61412;DHT22;47278;49.732;7.690;2024-01-07T02:38:53;4.30;99.90
61412;DHT22;47278;49.732;7.690;2024-01-07T02:41:18;4.20;99.90
61412;DHT22;47278;49.732;7.690;2024-01-07T02:43:45;4.10;99.90
61412;DHT22;47278;49.732;7.690;2024-01-07T02:46:11;4.20;99.90
61412;DHT22;47278;49.732;7.690;2024-01-07T02:48:36;5.00;99.90
61412;DHT22;47278;49.732;7.690;2024-01-07T02:51:02;4.20;99.90
61412;DHT22;47278;49.732;7.690;2024-01-07T02:53:31;4.20;99.90
61412;DHT22;47278;49.732;7.690;2024-01-07T02:55:57;4.20;99.90
61412;DHT22;47278;49.732;7.690;2024-01-07T02:58:23;4.20;99.90
61412;DHT22;47278;49.732;7.690;2024-01-07T03:00:49;4.20;99.90
61412;DHT22;47278;49.732;7.690;2024-01-07T03:03:14;4.10;99.90
61412;DHT22;47278;49.732;7.690;2024-01-07T03:05:40;4.10;99.90
61412;DHT22;47278;49.732;7.690;2024-01-07T03:08:07;4.20;99.90
61412;DHT22;47278;49.732;7.690;2024-01-07T03:10:33;4.20;99.90
61412;DHT22;47278;49.732;7.690;2024-01-07T03:13:00;4.60;99.90
61412;DHT22;47278;49.732;7.690;2024-01-07T03:15:27;4.20;99.90
61412;DHT22;47278;49.732;7.690;2024-01-07T03:17:53;4.10;99.90
61412;DHT22;47278;49.732;7.690;2024-01-07T03:20:19;4.20;99.90
61412;DHT22;47278;49.732;7.690;2024-01-07T03:22:45;4.80;99.90
61412;DHT22;47278;49.732;7.690;2024-01-07T03:25:11;4.10;99.90
61412;DHT22;47278;49.732;7.690;2024-01-07T03:27:37;5.20;99.90
61412;DHT22;47278;49.732;7.690;2024-01-07T03:30:02;4.30;99.90
61412;DHT22;47278;49.732;7.690;2024-01-07T03:32:29;4.10;99.90
61412;DHT22;47278;49.732;7.690;2024-01-07T03:34:55;4.20;99.90
61412;DHT22;47278;49.732;7.690;2024-01-07T03:37:21;4.30;99.90
61412;DHT22;47278;49.732;7.690;2024-01-07T03:39:46;4.20;99.90
61412;DHT22;47278;49.732;7.690;2024-01-07T03:42:12;4.50;99.90
61412;DHT22;47278;49.732;7.690;2024-01-07T03:44:38;4.50;99.90
61412;DHT22;47278;49.732;7.690;2024-01-07T03:47:05;4.10;99.90
61412;DHT22;47278;49.732;7.690;2024-01-07T03:49:30;4.20;99.90
61412;DHT22;47278;49.732;7.690;2024-01-07T03:51:57;4.20;99.90
61412;DHT22;47278;49.732;7.690;2024-01-07T03:54:23;4.10;99.90
61412;DHT22;47278;49.732;7.690;2024-01-07T03:56:48;4.10;99.90
61412;DHT22;47278;49.732;7.690;2024-01-07T03:59:14;4.10;99.90
61412;DHT22;47278;49.732;7.690;2024-01-07T04:01:41;5.00;99.90
61412;DHT22;47278;49.732;7.690;2024-01-07T04:04:08;4.10;99.90
61412;DHT22;47278;49.732;7.690;2024-01-07T04:06:33;3.80;99.90
61412;DHT22;47278;49.732;7.690;2024-01-07T04:08:59;4.10;99.90
61412;DHT22;47278;49.732;7.690;2024-01-07T04:11:24;4.10;99.90
61412;DHT22;47278;49.732;7.690;2024-01-07T04:13:51;4.10;99.90
61412;DHT22;47278;49.732;7.690;2024-01-07T04:16:17;4.10;99.90
61412;DHT22;47278;49.732;7.690;2024-01-07T04:18:43;4.10;99.90
61412;DHT22;47278;49.732;7.690;2024-01-07T04:21:10;4.10;99.90
61412;DHT22;47278;49.732;7.690;2024-01-07T04:23:40;4.10;99.90
61412;DHT22;47278;49.732;7.690;2024-01-07T04:26:07;4.10;99.90
61412;DHT22;47278;49.732;7.690;2024-01-07T04:28:33;5.40;99.90
61412;DHT22;47278;49.732;7.690;2024-01-07T04:30:58;4.20;99.90
61412;DHT22;47278;49.732;7.690;2024-01-07T04:33:24;4.10;99.90
61412;DHT22;47278;49.732;7.690;2024-01-07T04:35:51;5.20;99.90
61412;DHT22;47278;49.732;7.690;2024-01-07T04:38:17;4.90;99.90
61412;DHT22;47278;49.732;7.690;2024-01-07T04:40:43;4.10;99.90
61412;DHT22;47278;49.732;7.690;2024-01-07T04:43:08;4.20;99.90
61412;DHT22;47278;49.732;7.690;2024-01-07T04:45:34;4.30;99.90
61412;DHT22;47278;49.732;7.690;2024-01-07T04:48:01;4.10;99.90
61412;DHT22;47278;49.732;7.690;2024-01-07T04:50:27;4.00;99.90
61412;DHT22;47278;49.732;7.690;2024-01-07T04:52:52;4.00;99.90
61412;DHT22;47278;49.732;7.690;2024-01-07T04:55:18;4.00;99.90
61412;DHT22;47278;49.732;7.690;2024-01-07T04:57:45;3.90;99.90
61412;DHT22;47278;49.732;7.690;2024-01-07T05:00:11;4.00;99.90
61412;DHT22;47278;49.732;7.690;2024-01-07T05:02:37;4.00;99.90
61412;DHT22;47278;49.732;7.690;2024-01-07T05:05:03;4.90;99.90
61412;DHT22;47278;49.732;7.690;2024-01-07T05:07:29;4.00;99.90
61412;DHT22;47278;49.732;7.690;2024-01-07T05:09:55;4.50;99.90
61412;DHT22;47278;49.732;7.690;2024-01-07T05:12:21;4.20;99.90
61412;DHT22;47278;49.732;7.690;2024-01-07T05:14:47;4.00;99.90
61412;DHT22;47278;49.732;7.690;2024-01-07T05:17:13;4.00;99.90
61412;DHT22;47278;49.732;7.690;2024-01-07T05:19:42;3.90;99.90
61412;DHT22;47278;49.732;7.690;2024-01-07T05:22:09;3.90;99.90
61412;DHT22;47278;49.732;7.690;2024-01-07T05:24:38;4.00;99.90
61412;DHT22;47278;49.732;7.690;2024-01-07T05:27:06;4.00;99.90
61412;DHT22;47278;49.732;7.690;2024-01-07T05:29:33;4.00;99.90
61412;DHT22;47278;49.732;7.690;2024-01-07T05:31:59;4.10;99.90
61412;DHT22;47278;49.732;7.690;2024-01-07T05:34:26;4.30;99.90
61412;DHT22;47278;49.732;7.690;2024-01-07T05:36:53;4.10;99.90
61412;DHT22;47278;49.732;7.690;2024-01-07T05:39:18;4.10;99.90
61412;DHT22;47278;49.732;7.690;2024-01-07T05:41:45;4.10;99.90
61412;DHT22;47278;49.732;7.690;2024-01-07T05:44:11;4.40;99.90
61412;DHT22;47278;49.732;7.690;2024-01-07T05:46:38;3.90;99.90
61412;DHT22;47278;49.732;7.690;2024-01-07T05:49:05;3.90;99.90
61412;DHT22;47278;49.732;7.690;2024-01-07T05:51:31;4.20;99.90
61412;DHT22;47278;49.732;7.690;2024-01-07T05:53:57;3.90;99.90
61412;DHT22;47278;49.732;7.690;2024-01-07T05:56:23;3.80;99.90
61412;DHT22;47278;49.732;7.690;2024-01-07T05:58:49;3.80;99.90
61412;DHT22;47278;49.732;7.690;2024-01-07T06:01:21;3.80;99.90
61412;DHT22;47278;49.732;7.690;2024-01-07T06:03:47;3.80;99.90
61412;DHT22;47278;49.732;7.690;2024-01-07T06:06:13;4.80;99.90
61412;DHT22;47278;49.732;7.690;2024-01-07T06:08:43;3.90;99.90
61412;DHT22;47278;49.732;7.690;2024-01-07T06:11:09;3.90;99.90
61412;DHT22;47278;49.732;7.690;2024-01-07T06:13:36;4.50;99.90
61412;DHT22;47278;49.732;7.690;2024-01-07T06:16:03;3.90;99.90
61412;DHT22;47278;49.732;7.690;2024-01-07T06:18:29;4.00;99.90
61412;DHT22;47278;49.732;7.690;2024-01-07T06:20:54;4.00;99.90
61412;DHT22;47278;49.732;7.690;2024-01-07T06:23:21;5.00;99.90
61412;DHT22;47278;49.732;7.690;2024-01-07T06:25:47;4.00;99.90
61412;DHT22;47278;49.732;7.690;2024-01-07T06:28:13;4.00;99.90
61412;DHT22;47278;49.732;7.690;2024-01-07T06:30:38;5.90;99.90
61412;DHT22;47278;49.732;7.690;2024-01-07T06:33:04;3.90;99.90
61412;DHT22;47278;49.732;7.690;2024-01-07T06:35:31;3.90;99.90
61412;DHT22;47278;49.732;7.690;2024-01-07T06:37:57;3.90;99.90
61412;DHT22;47278;49.732;7.690;2024-01-07T06:40:23;3.90;99.90
61412;DHT22;47278;49.732;7.690;2024-01-07T06:42:49;3.90;99.90
61412;DHT22;47278;49.732;7.690;2024-01-07T06:45:16;4.00;99.90
61412;DHT22;47278;49.732;7.690;2024-01-07T06:47:42;4.00;99.90
61412;DHT22;47278;49.732;7.690;2024-01-07T06:50:10;4.00;99.90
61412;DHT22;47278;49.732;7.690;2024-01-07T06:52:37;5.20;99.90
61412;DHT22;47278;49.732;7.690;2024-01-07T06:55:03;3.90;99.90
61412;DHT22;47278;49.732;7.690;2024-01-07T06:57:29;4.00;99.90
61412;DHT22;47278;49.732;7.690;2024-01-07T06:59:55;4.10;99.90
61412;DHT22;47278;49.732;7.690;2024-01-07T07:02:21;4.10;99.90
61412;DHT22;47278;49.732;7.690;2024-01-07T07:04:47;4.10;99.90
61412;DHT22;47278;49.732;7.690;2024-01-07T07:07:13;4.10;99.90
61412;DHT22;47278;49.732;7.690;2024-01-07T07:09:39;4.20;99.90
61412;DHT22;47278;49.732;7.690;2024-01-07T07:12:05;4.20;99.90
61412;DHT22;47278;49.732;7.690;2024-01-07T07:14:33;4.10;99.90
61412;DHT22;47278;49.732;7.690;2024-01-07T07:16:58;4.20;99.90
61412;DHT22;47278;49.732;7.690;2024-01-07T07:19:25;4.20;99.90
61412;DHT22;47278;49.732;7.690;2024-01-07T07:21:51;4.20;99.90
61412;DHT22;47278;49.732;7.690;2024-01-07T07:24:17;4.10;99.90
61412;DHT22;47278;49.732;7.690;2024-01-07T07:26:43;4.10;99.90
61412;DHT22;47278;49.732;7.690;2024-01-07T07:29:09;4.00;99.90
61412;DHT22;47278;49.732;7.690;2024-01-07T07:31:35;5.00;99.90
61412;DHT22;47278;49.732;7.690;2024-01-07T07:34:04;4.00;99.90
61412;DHT22;47278;49.732;7.690;2024-01-07T07:36:31;4.00;99.90
61412;DHT22;47278;49.732;7.690;2024-01-07T07:38:56;4.00;99.90
61412;DHT22;47278;49.732;7.690;2024-01-07T07:41:23;4.00;99.90
61412;DHT22;47278;49.732;7.690;2024-01-07T07:43:49;4.00;99.90
61412;DHT22;47278;49.732;7.690;2024-01-07T07:46:15;4.00;99.90
61412;DHT22;47278;49.732;7.690;2024-01-07T07:48:41;4.10;99.90
61412;DHT22;47278;49.732;7.690;2024-01-07T07:51:07;4.00;99.90
61412;DHT22;47278;49.732;7.690;2024-01-07T07:53:33;4.10;99.90
61412;DHT22;47278;49.732;7.690;2024-01-07T07:56:01;4.00;99.90
61412;DHT22;47278;49.732;7.690;2024-01-07T07:58:26;4.10;99.90
61412;DHT22;47278;49.732;7.690;2024-01-07T08:00:53;4.00;99.90
61412;DHT22;47278;49.732;7.690;2024-01-07T08:03:19;4.00;99.90
61412;DHT22;47278;49.732;7.690;2024-01-07T08:05:45;3.90;99.90
61412;DHT22;47278;49.732;7.690;2024-01-07T08:08:11;4.00;99.90
61412;DHT22;47278;49.732;7.690;2024-01-07T08:10:37;4.00;99.90
61412;DHT22;47278;49.732;7.690;2024-01-07T08:13:02;4.10;99.90
61412;DHT22;47278;49.732;7.690;2024-01-07T08:15:29;4.00;99.90
61412;DHT22;47278;49.732;7.690;2024-01-07T08:17:55;4.00;99.90
61412;DHT22;47278;49.732;7.690;2024-01-07T08:20:21;4.00;99.90
61412;DHT22;47278;49.732;7.690;2024-01-07T08:22:46;4.10;99.90
61412;DHT22;47278;49.732;7.690;2024-01-07T08:25:13;4.10;99.90
61412;DHT22;47278;49.732;7.690;2024-01-07T08:27:40;4.10;99.90
61412;DHT22;47278;49.732;7.690;2024-01-07T08:30:06;4.30;99.90
61412;DHT22;47278;49.732;7.690;2024-01-07T08:32:33;4.20;99.90
61412;DHT22;47278;49.732;7.690;2024-01-07T08:35:00;5.10;99.90
61412;DHT22;47278;49.732;7.690;2024-01-07T08:37:26;4.50;99.90
61412;DHT22;47278;49.732;7.690;2024-01-07T08:39:51;4.20;99.90
61412;DHT22;47278;49.732;7.690;2024-01-07T08:42:17;4.30;99.90
61412;DHT22;47278;49.732;7.690;2024-01-07T08:44:43;4.10;99.90
61412;DHT22;47278;49.732;7.690;2024-01-07T08:47:08;4.10;99.90
61412;DHT22;47278;49.732;7.690;2024-01-07T08:49:35;4.20;99.90
61412;DHT22;47278;49.732;7.690;2024-01-07T08:52:03;5.10;99.90
61412;DHT22;47278;49.732;7.690;2024-01-07T08:54:29;4.20;99.90
61412;DHT22;47278;49.732;7.690;2024-01-07T08:56:55;6.00;99.90
61412;DHT22;47278;49.732;7.690;2024-01-07T08:59:21;4.40;99.90
61412;DHT22;47278;49.732;7.690;2024-01-07T09:01:47;4.20;99.90
61412;DHT22;47278;49.732;7.690;2024-01-07T09:04:13;4.20;99.90
61412;DHT22;47278;49.732;7.690;2024-01-07T09:06:39;4.20;99.90
61412;DHT22;47278;49.732;7.690;2024-01-07T09:09:04;4.20;99.90
61412;DHT22;47278;49.732;7.690;2024-01-07T09:11:32;4.20;99.90
61412;DHT22;47278;49.732;7.690;2024-01-07T09:13:57;4.20;99.90
61412;DHT22;47278;49.732;7.690;2024-01-07T09:16:23;5.40;99.90
61412;DHT22;47278;49.732;7.690;2024-01-07T09:18:49;4.40;99.90
61412;DHT22;47278;49.732;7.690;2024-01-07T09:21:16;4.70;99.90
61412;DHT22;47278;49.732;7.690;2024-01-07T09:23:43;5.40;99.90
61412;DHT22;47278;49.732;7.690;2024-01-07T09:26:08;4.30;99.90
61412;DHT22;47278;49.732;7.690;2024-01-07T09:28:34;4.30;99.90
61412;DHT22;47278;49.732;7.690;2024-01-07T09:31:01;4.70;99.90
61412;DHT22;47278;49.732;7.690;2024-01-07T09:33:27;4.40;99.90
61412;DHT22;47278;49.732;7.690;2024-01-07T09:35:53;4.40;99.90
61412;DHT22;47278;49.732;7.690;2024-01-07T09:38:22;4.40;99.90
61412;DHT22;47278;49.732;7.690;2024-01-07T09:40:50;4.40;99.90
61412;DHT22;47278;49.732;7.690;2024-01-07T09:43:16;4.40;99.90
61412;DHT22;47278;49.732;7.690;2024-01-07T09:45:41;4.40;99.90
61412;DHT22;47278;49.732;7.690;2024-01-07T09:48:08;4.60;99.90
61412;DHT22;47278;49.732;7.690;2024-01-07T09:50:33;4.70;99.90
61412;DHT22;47278;49.732;7.690;2024-01-07T09:52:59;4.50;99.90
61412;DHT22;47278;49.732;7.690;2024-01-07T09:55:31;4.60;99.90
61412;DHT22;47278;49.732;7.690;2024-01-07T09:57:58;4.60;99.90
61412;DHT22;47278;49.732;7.690;2024-01-07T10:00:26;4.60;99.90
61412;DHT22;47278;49.732;7.690;2024-01-07T10:02:53;4.60;99.90
61412;DHT22;47278;49.732;7.690;2024-01-07T10:05:19;5.20;99.90
61412;DHT22;47278;49.732;7.690;2024-01-07T10:07:45;4.60;99.90
61412;DHT22;47278;49.732;7.690;2024-01-07T10:10:14;4.60;99.90
61412;DHT22;47278;49.732;7.690;2024-01-07T10:12:45;4.60;99.90
61412;DHT22;47278;49.732;7.690;2024-01-07T10:15:14;4.60;99.90
61412;DHT22;47278;49.732;7.690;2024-01-07T10:17:40;4.60;99.90
61412;DHT22;47278;49.732;7.690;2024-01-07T10:20:07;4.60;99.90
61412;DHT22;47278;49.732;7.690;2024-01-07T10:22:39;4.60;99.90
61412;DHT22;47278;49.732;7.690;2024-01-07T10:25:05;4.70;99.90
61412;DHT22;47278;49.732;7.690;2024-01-07T10:27:35;4.80;99.90
61412;DHT22;47278;49.732;7.690;2024-01-07T10:30:01;4.70;99.90
61412;DHT22;47278;49.732;7.690;2024-01-07T10:32:28;4.70;99.90
61412;DHT22;47278;49.732;7.690;2024-01-07T10:34:57;4.90;99.90
61412;DHT22;47278;49.732;7.690;2024-01-07T10:37:27;4.70;99.90
61412;DHT22;47278;49.732;7.690;2024-01-07T10:39:53;4.70;99.90
61412;DHT22;47278;49.732;7.690;2024-01-07T10:42:22;4.60;99.90
61412;DHT22;47278;49.732;7.690;2024-01-07T10:44:48;4.60;99.90
61412;DHT22;47278;49.732;7.690;2024-01-07T10:47:13;4.60;99.90
61412;DHT22;47278;49.732;7.690;2024-01-07T10:49:40;4.80;99.90
61412;DHT22;47278;49.732;7.690;2024-01-07T10:52:07;5.80;99.90
61412;DHT22;47278;49.732;7.690;2024-01-07T10:54:34;4.60;99.90
61412;DHT22;47278;49.732;7.690;2024-01-07T10:59:46;4.60;99.90
61412;DHT22;47278;49.732;7.690;2024-01-07T11:02:13;4.60;99.90
61412;DHT22;47278;49.732;7.690;2024-01-07T11:04:54;4.50;99.90
61412;DHT22;47278;49.732;7.690;2024-01-07T11:10:02;4.40;99.90
61412;DHT22;47278;49.732;7.690;2024-01-07T11:12:31;4.50;99.90
61412;DHT22;47278;49.732;7.690;2024-01-07T11:14:57;4.60;99.90
61412;DHT22;47278;49.732;7.690;2024-01-07T11:17:42;5.70;99.90
61412;DHT22;47278;49.732;7.690;2024-01-07T11:20:18;4.40;99.90
61412;DHT22;47278;49.732;7.690;2024-01-07T11:22:44;4.30;99.90
61412;DHT22;47278;49.732;7.690;2024-01-07T11:28:04;4.20;99.90
61412;DHT22;47278;49.732;7.690;2024-01-07T11:30:31;4.20;99.90
61412;DHT22;47278;49.732;7.690;2024-01-07T11:33:03;4.40;99.90
61412;DHT22;47278;49.732;7.690;2024-01-07T11:38:14;4.10;99.90
61412;DHT22;47278;49.732;7.690;2024-01-07T11:40:40;4.00;99.90
61412;DHT22;47278;49.732;7.690;2024-01-07T11:43:05;4.10;99.90
61412;DHT22;47278;49.732;7.690;2024-01-07T11:45:31;4.30;99.90
61412;DHT22;47278;49.732;7.690;2024-01-07T11:47:57;5.20;99.90
61412;DHT22;47278;49.732;7.690;2024-01-07T11:50:23;4.30;99.90
61412;DHT22;47278;49.732;7.690;2024-01-07T11:52:49;4.90;99.90
61412;DHT22;47278;49.732;7.690;2024-01-07T11:55:14;4.60;99.90
61412;DHT22;47278;49.732;7.690;2024-01-07T11:57:41;4.20;99.90
61412;DHT22;47278;49.732;7.690;2024-01-07T12:00:07;4.40;99.90
61412;DHT22;47278;49.732;7.690;2024-01-07T12:02:33;4.10;99.90
61412;DHT22;47278;49.732;7.690;2024-01-07T12:04:58;4.00;99.90
61412;DHT22;47278;49.732;7.690;2024-01-07T12:07:24;4.00;99.90
61412;DHT22;47278;49.732;7.690;2024-01-07T12:09:57;5.40;99.90
61412;DHT22;47278;49.732;7.690;2024-01-07T12:12:24;4.00;99.90
61412;DHT22;47278;49.732;7.690;2024-01-07T12:14:49;4.00;99.90
61412;DHT22;47278;49.732;7.690;2024-01-07T12:17:18;5.20;99.90
61412;DHT22;47278;49.732;7.690;2024-01-07T12:19:44;3.90;99.90
61412;DHT22;47278;49.732;7.690;2024-01-07T12:22:09;3.90;99.90
61412;DHT22;47278;49.732;7.690;2024-01-07T12:24:35;3.90;99.90
61412;DHT22;47278;49.732;7.690;2024-01-07T12:27:04;3.90;99.90
61412;DHT22;47278;49.732;7.690;2024-01-07T12:29:30;3.90;99.90
61412;DHT22;47278;49.732;7.690;2024-01-07T12:31:56;4.70;99.90
61412;DHT22;47278;49.732;7.690;2024-01-07T12:34:21;3.80;99.90
61412;DHT22;47278;49.732;7.690;2024-01-07T12:36:50;3.80;99.90
61412;DHT22;47278;49.732;7.690;2024-01-07T12:39:17;4.60;99.90
61412;DHT22;47278;49.732;7.690;2024-01-07T12:41:43;5.20;99.90
61412;DHT22;47278;49.732;7.690;2024-01-07T12:44:09;3.70;99.90
61412;DHT22;47278;49.732;7.690;2024-01-07T12:46:35;3.70;99.90
61412;DHT22;47278;49.732;7.690;2024-01-07T12:49:01;3.90;99.90
61412;DHT22;47278;49.732;7.690;2024-01-07T12:51:26;3.80;99.90
61412;DHT22;47278;49.732;7.690;2024-01-07T12:53:53;3.70;99.90
61412;DHT22;47278;49.732;7.690;2024-01-07T12:56:21;3.70;99.90
61412;DHT22;47278;49.732;7.690;2024-01-07T12:58:47;3.70;99.90
61412;DHT22;47278;49.732;7.690;2024-01-07T13:01:13;3.70;99.90
61412;DHT22;47278;49.732;7.690;2024-01-07T13:03:39;3.60;99.90
61412;DHT22;47278;49.732;7.690;2024-01-07T13:06:05;3.70;99.90
61412;DHT22;47278;49.732;7.690;2024-01-07T13:08:31;3.70;99.90
61412;DHT22;47278;49.732;7.690;2024-01-07T13:10:58;3.70;99.90
61412;DHT22;47278;49.732;7.690;2024-01-07T13:13:25;3.70;99.90
61412;DHT22;47278;49.732;7.690;2024-01-07T13:15:51;3.60;99.90
61412;DHT22;47278;49.732;7.690;2024-01-07T13:18:17;4.00;99.90
61412;DHT22;47278;49.732;7.690;2024-01-07T13:20:43;3.70;99.90
61412;DHT22;47278;49.732;7.690;2024-01-07T13:23:09;3.70;99.90
61412;DHT22;47278;49.732;7.690;2024-01-07T13:25:35;3.70;99.90
61412;DHT22;47278;49.732;7.690;2024-01-07T13:28:01;3.70;99.90
61412;DHT22;47278;49.732;7.690;2024-01-07T13:30:27;3.70;99.90
61412;DHT22;47278;49.732;7.690;2024-01-07T13:32:53;3.90;99.90
61412;DHT22;47278;49.732;7.690;2024-01-07T13:35:22;3.90;99.90
61412;DHT22;47278;49.732;7.690;2024-01-07T13:37:47;3.90;99.90
61412;DHT22;47278;49.732;7.690;2024-01-07T13:40:13;4.00;99.90
61412;DHT22;47278;49.732;7.690;2024-01-07T13:42:39;3.90;99.90
61412;DHT22;47278;49.732;7.690;2024-01-07T13:45:05;4.00;99.90
61412;DHT22;47278;49.732;7.690;2024-01-07T13:47:31;3.90;99.90
61412;DHT22;47278;49.732;7.690;2024-01-07T13:49:57;3.90;99.90
61412;DHT22;47278;49.732;7.690;2024-01-07T13:52:22;3.80;99.90
61412;DHT22;47278;49.732;7.690;2024-01-07T13:54:48;3.80;99.90
61412;DHT22;47278;49.732;7.690;2024-01-07T13:57:14;5.10;99.90
61412;DHT22;47278;49.732;7.690;2024-01-07T13:59:39;3.60;99.90
61412;DHT22;47278;49.732;7.690;2024-01-07T14:02:06;3.60;99.90
61412;DHT22;47278;49.732;7.690;2024-01-07T14:04:32;4.00;99.90
61412;DHT22;47278;49.732;7.690;2024-01-07T14:06:58;3.50;99.90
61412;DHT22;47278;49.732;7.690;2024-01-07T14:09:23;3.50;99.90
61412;DHT22;47278;49.732;7.690;2024-01-07T14:11:50;3.60;99.90
61412;DHT22;47278;49.732;7.690;2024-01-07T14:14:15;3.60;99.90
61412;DHT22;47278;49.732;7.690;2024-01-07T14:16:41;3.60;99.90
61412;DHT22;47278;49.732;7.690;2024-01-07T14:19:07;3.60;99.90
61412;DHT22;47278;49.732;7.690;2024-01-07T14:21:32;3.60;99.90
61412;DHT22;47278;49.732;7.690;2024-01-07T14:23:58;3.50;99.90
61412;DHT22;47278;49.732;7.690;2024-01-07T14:26:26;3.50;99.90
61412;DHT22;47278;49.732;7.690;2024-01-07T14:28:51;3.40;99.90
61412;DHT22;47278;49.732;7.690;2024-01-07T14:31:17;3.30;99.90
61412;DHT22;47278;49.732;7.690;2024-01-07T14:33:43;3.30;99.90
61412;DHT22;47278;49.732;7.690;2024-01-07T14:36:09;3.30;99.90
61412;DHT22;47278;49.732;7.690;2024-01-07T14:38:45;3.20;99.90
61412;DHT22;47278;49.732;7.690;2024-01-07T14:41:13;3.20;99.90
61412;DHT22;47278;49.732;7.690;2024-01-07T14:43:39;3.20;99.90
61412;DHT22;47278;49.732;7.690;2024-01-07T14:46:08;3.20;99.90
61412;DHT22;47278;49.732;7.690;2024-01-07T14:48:34;3.20;99.90
61412;DHT22;47278;49.732;7.690;2024-01-07T14:51:00;3.20;99.90
61412;DHT22;47278;49.732;7.690;2024-01-07T14:53:26;3.10;99.90
61412;DHT22;47278;49.732;7.690;2024-01-07T14:55:54;3.10;99.90
61412;DHT22;47278;49.732;7.690;2024-01-07T14:58:19;3.10;99.90
61412;DHT22;47278;49.732;7.690;2024-01-07T15:00:46;3.10;99.90
61412;DHT22;47278;49.732;7.690;2024-01-07T15:03:13;3.10;99.90
61412;DHT22;47278;49.732;7.690;2024-01-07T15:05:39;3.00;99.90
61412;DHT22;47278;49.732;7.690;2024-01-07T15:08:06;2.90;99.90
61412;DHT22;47278;49.732;7.690;2024-01-07T15:10:32;2.90;99.90
61412;DHT22;47278;49.732;7.690;2024-01-07T15:12:58;3.20;99.90
61412;DHT22;47278;49.732;7.690;2024-01-07T15:15:24;3.70;99.90
61412;DHT22;47278;49.732;7.690;2024-01-07T15:17:58;0.00;99.90
61412;DHT22;47278;49.732;7.690;2024-01-07T15:20:24;2.80;99.90
61412;DHT22;47278;49.732;7.690;2024-01-07T15:22:49;2.70;99.90
61412;DHT22;47278;49.732;7.690;2024-01-07T15:25:16;2.70;99.90
61412;DHT22;47278;49.732;7.690;2024-01-07T15:27:42;3.00;99.90
61412;DHT22;47278;49.732;7.690;2024-01-07T15:30:10;2.70;99.90
61412;DHT22;47278;49.732;7.690;2024-01-07T15:32:35;2.60;99.90
61412;DHT22;47278;49.732;7.690;2024-01-07T15:35:01;2.90;99.90
61412;DHT22;47278;49.732;7.690;2024-01-07T15:37:30;2.50;99.90
61412;DHT22;47278;49.732;7.690;2024-01-07T15:39:56;2.40;99.90
61412;DHT22;47278;49.732;7.690;2024-01-07T15:42:21;2.80;99.90
61412;DHT22;47278;49.732;7.690;2024-01-07T15:44:48;2.30;99.90
61412;DHT22;47278;49.732;7.690;2024-01-07T15:47:13;2.20;99.90
61412;DHT22;47278;49.732;7.690;2024-01-07T15:49:39;2.40;99.90